Etusivu
METAR-TAF:

METAR-TAF

Lentoasemat :

Šiauliai, Liettua

Leveyspiiri: 55-53-38N, Pituuspiiri: 023-23-42E, korkeus merenpinnasta: 135 m

Tämänhetkinen sää

Tämä raportti tehtiin 44 minuuttia sitten, kello 22.50 UTC
Tuuli 4 kn idästä/koillisesta, vaihdellen pohjoisen/koillisen ja idän välillä
Lämpötila -3°C
Kosteus 93%
Ilmanpaine 1030 hPa
Näkyvyys 10 km tai enemmän
Pilvistä 600 ft:n korkeudessa

METAR: EYSA 202250Z 07004KT 030V100 9999 OVC006 M03/M04 Q1030 R14L/09//95 YLO1 NOSIG

Aika: 01:34 (23:34 UTC)

Sääennuste

Tämä raportti tehtiin 3 tuntia ja 34 minuuttia sitten, kello 20.00 UTC
Ennuste voimassa 20. päivästä klo 21 UTC - 21. päivään klo 06 UTC
Tuuli 5 kn eri suunnista
Näkyvyys: 5000 m
Pilvistä 500 ft:n korkeudessa
utua
Ajoittain
20. päivästä klo 21 UTC - 21. päivään klo 06 UTC
Näkyvyys: 3000 m

TAF: EYSA 202000Z 2021/2106 VRB05KT 5000 BR OVC005 TEMPO 2021/2106 3000

Säähavainnot ja -ennusteet yli 4000 lentoasemalta (METAR- ja TAF-raportit).

Käytössä olevat sääasemat on merkitty karttaan keltaisilla ja punaisilla pisteillä.

Aseta hiiri pisteen päälle nähdäksesi sääaseman nimen.

Klikkaa sitten nähdäksesi säähavainnot ja -ennusteet.

Kartan vaihtaminen: klikkaa mustalla rastilla varustettuja vihreitä pisteitä, niin voit zoomata sisään; viivalla varustettua vihreää pistettä, niin voit zoomata ulos tai vihreitä nuolia, niin pääset viereisille kartoille.


METAR-TAF: